Time;durP1;ratioP1;P1;durP2;ratioP2;P2;SDS_P1;SDS_P2;PMS_P1;PMS_P2;Temp;Humidity;BMP_temperature;BMP_pressure;BME280_temperature;BME280_humidity;BME280_pressure;Samples;Min_cycle;Max_cycle;Signal;HPM_P1;HPM_P2
2022/10/05 00:00:19;;;;;;;5.18;4.00;;;22.70;47.80;;;;;;5007990;28;20061;-63
2022/10/05 00:02:49;;;;;;;5.93;4.28;;;22.70;47.90;;;;;;5008653;28;20046;-64
2022/10/05 00:05:31;;;;;;;4.57;3.80;;;22.70;47.80;;;;;;5005631;28;20440;-64
2022/10/05 00:08:13;;;;;;;5.28;4.18;;;22.70;47.90;;;;;;5009007;28;20050;-64
2022/10/05 00:10:42;;;;;;;4.50;4.00;;;22.70;47.80;;;;;;5008971;28;20725;-64
2022/10/05 00:13:21;;;;;;;4.22;3.83;;;22.70;47.80;;;;;;5009951;28;20062;-64
2022/10/05 00:15:49;;;;;;;5.50;4.00;;;22.70;47.80;;;;;;5009265;28;20522;-64
2022/10/05 00:18:18;;;;;;;4.28;3.83;;;22.70;48.40;;;;;;5008722;28;20538;-64
2022/10/05 00:20:47;;;;;;;6.97;4.55;;;22.60;47.80;;;;;;5007385;28;20053;-64
2022/10/05 00:23:20;;;;;;;4.35;3.95;;;22.60;47.80;;;;;;5007878;28;20046;-64
2022/10/05 00:25:48;;;;;;;6.70;3.88;;;22.60;47.90;;;;;;5009380;28;20502;-64
2022/10/05 00:28:25;;;;;;;5.18;3.78;;;22.60;47.90;;;;;;5009162;28;20065;-64
2022/10/05 00:30:57;;;;;;;3.72;3.20;;;22.60;47.90;;;;;;5008806;28;20142;-64
2022/10/05 00:33:26;;;;;;;4.30;3.22;;;22.60;47.90;;;;;;5009812;28;20058;-64
2022/10/05 00:35:53;;;;;;;5.72;4.18;;;22.60;48.00;;;;;;5004478;28;20052;-64
2022/10/05 00:38:21;;;;;;;6.25;4.20;;;22.60;47.90;;;;;;5007815;28;20046;-64
2022/10/05 00:41:09;;;;;;;4.18;3.78;;;22.60;47.90;;;;;;5008276;28;20049;-64
2022/10/05 00:44:04;;;;;;;4.85;3.95;;;22.60;48.00;;;;;;5009021;28;20052;-64
2022/10/05 00:46:53;;;;;;;4.40;3.80;;;22.60;47.90;;;;;;5008829;28;20050;-64
2022/10/05 00:50:00;;;;;;;4.38;3.30;;;22.60;47.80;;;;;;5008426;28;20046;-64
2022/10/05 00:53:00;;;;;;;4.15;3.22;;;22.60;47.80;;;;;;5006856;28;20487;-64
2022/10/05 00:55:43;;;;;;;;;;;22.60;47.70;;;;;;5009287;28;20485;-64
2022/10/05 00:58:37;;;;;;;5.38;4.00;;;22.60;47.70;;;;;;5009073;28;19921;-63
2022/10/05 01:01:12;;;;;;;4.72;3.53;;;22.60;47.70;;;;;;5007964;28;20053;-64
2022/10/05 01:04:18;;;;;;;5.15;3.20;;;22.60;47.70;;;;;;5009046;28;20061;-64
2022/10/05 01:07:18;;;;;;;5.30;4.05;;;22.60;47.70;;;;;;5006823;28;20053;-64
2022/10/05 01:10:24;;;;;;;4.55;3.60;;;22.60;47.70;;;;;;5005733;28;20494;-64
2022/10/05 01:13:10;;;;;;;4.13;3.50;;;22.60;47.70;;;;;;5008244;28;20053;-64
2022/10/05 01:15:53;;;;;;;4.82;3.58;;;22.60;47.70;;;;;;5007891;28;20056;-64
2022/10/05 01:18:38;;;;;;;5.25;3.45;;;22.60;47.70;;;;;;5007474;28;20069;-64
2022/10/05 01:21:20;;;;;;;4.53;3.53;;;22.60;47.80;;;;;;5008488;28;20478;-64
2022/10/05 01:24:12;;;;;;;3.63;3.33;;;22.60;47.80;;;;;;5008000;28;20057;-64
2022/10/05 01:27:06;;;;;;;3.45;3.15;;;22.60;47.70;;;;;;5008591;28;20050;-64
2022/10/05 01:29:41;;;;;;;3.75;3.10;;;22.60;47.80;;;;;;5007436;28;20045;-64
2022/10/05 01:32:48;;;;;;;4.93;3.63;;;22.60;47.80;;;;;;5005786;28;20052;-63
2022/10/05 01:35:28;;;;;;;4.18;3.20;;;22.60;47.80;;;;;;5007766;28;20056;-64
2022/10/05 01:38:24;;;;;;;3.78;3.05;;;22.60;47.80;;;;;;5008253;28;20049;-63
2022/10/05 01:41:06;;;;;;;5.75;3.42;;;22.60;47.80;;;;;;5003815;28;20050;-64
2022/10/05 01:43:54;;;;;;;3.85;3.17;;;22.50;47.80;;;;;;5007910;28;20409;-64
2022/10/05 01:46:42;;;;;;;3.97;2.83;;;22.60;47.80;;;;;;5007899;28;20042;-63
2022/10/05 01:49:37;;;;;;;3.97;3.22;;;22.50;47.80;;;;;;5007710;28;20053;-64
2022/10/05 01:52:25;;;;;;;3.75;3.35;;;22.50;47.80;;;;;;5008270;28;20061;-64
2022/10/05 01:55:16;;;;;;;4.03;3.15;;;22.50;47.80;;;;;;5007883;28;20054;-63
2022/10/05 01:58:20;;;;;;;4.57;3.33;;;22.50;47.70;;;;;;5007490;28;20505;-64
2022/10/05 02:01:20;;;;;;;3.65;3.05;;;22.50;47.80;;;;;;5007387;28;20057;-63
2022/10/05 02:04:08;;;;;;;4.83;3.30;;;22.50;47.70;;;;;;5008237;28;20129;-64
2022/10/05 02:06:41;;;;;;;4.28;2.92;;;22.50;47.80;;;;;;5007590;28;20050;-64
2022/10/05 02:09:28;;;;;;;3.20;2.75;;;22.50;47.70;;;;;;5008000;28;20060;-64
2022/10/05 02:12:11;;;;;;;3.90;2.92;;;22.50;47.70;;;;;;5002487;28;20079;-64
2022/10/05 02:14:42;;;;;;;3.42;2.90;;;22.50;47.70;;;;;;5005997;28;20049;-64
2022/10/05 02:17:16;;;;;;;2.95;2.67;;;22.50;47.70;;;;;;5007265;28;20046;-63
2022/10/05 02:19:51;;;;;;;4.63;2.63;;;22.50;47.70;;;;;;5007775;28;20073;-63
2022/10/05 02:22:27;;;;;;;4.00;2.85;;;22.50;47.70;;;;;;5007944;28;20050;-63
2022/10/05 02:24:58;;;;;;;4.20;2.83;;;22.50;47.70;;;;;;5008188;28;20049;-64
2022/10/05 02:27:30;;;;;;;4.07;2.63;;;22.50;47.70;;;;;;5006988;28;20050;-64
2022/10/05 02:30:03;;;;;;;2.80;2.60;;;22.50;47.80;;;;;;5010842;28;20061;-64
2022/10/05 02:32:50;;;;;;;4.57;3.30;;;22.50;47.80;;;;;;5010792;28;20046;-63
2022/10/05 02:35:19;;;;;;;2.92;2.60;;;22.50;47.80;;;;;;5010300;28;20044;-64
2022/10/05 02:38:08;;;;;;;3.60;2.90;;;22.50;47.80;;;;;;5009971;28;20056;-64
2022/10/05 02:40:58;;;;;;;2.97;2.50;;;22.50;47.80;;;;;;5010327;28;20041;-63
2022/10/05 02:43:33;;;;;;;;;;;22.40;47.80;;;;;;5006939;28;20042;-64
2022/10/05 02:46:29;;;;;;;3.13;2.83;;;22.40;47.80;;;;;;5010738;28;20382;-64
2022/10/05 02:49:25;;;;;;;4.57;2.72;;;22.40;47.80;;;;;;5010754;28;20056;-64
2022/10/05 02:52:17;;;;;;;2.35;2.15;;;22.40;47.80;;;;;;5010781;28;20050;-64
2022/10/05 02:55:14;;;;;;;3.67;2.90;;;22.50;47.70;;;;;;5011219;28;20084;-64
2022/10/05 02:57:55;;;;;;;3.13;2.40;;;22.50;47.70;;;;;;5011042;28;20144;-64
2022/10/05 03:00:24;;;;;;;2.70;2.50;;;22.50;47.60;;;;;;5010831;28;20054;-64
2022/10/05 03:03:20;;;;;;;3.47;2.85;;;22.50;47.60;;;;;;5010812;28;20081;-64
2022/10/05 03:05:57;;;;;;;2.70;2.40;;;22.50;47.60;;;;;;5009834;28;20395;-64
2022/10/05 03:08:56;;;;;;;2.65;2.40;;;22.50;47.60;;;;;;5010804;28;20049;-64
2022/10/05 03:11:45;;;;;;;3.83;2.58;;;22.50;47.60;;;;;;5010991;28;20458;-64
2022/10/05 03:14:20;;;;;;;3.05;2.42;;;22.50;47.60;;;;;;5007345;28;20046;-64
2022/10/05 03:17:19;;;;;;;2.88;2.00;;;22.50;48.10;;;;;;5010390;28;20116;-64
2022/10/05 03:20:21;;;;;;;2.63;2.22;;;22.50;47.60;;;;;;5009621;28;20061;-64
2022/10/05 03:23:03;;;;;;;2.83;2.20;;;22.50;47.60;;;;;;5010096;28;20069;-64
2022/10/05 03:25:59;;;;;;;2.72;2.30;;;22.50;47.60;;;;;;5010782;28;20153;-64
2022/10/05 03:28:56;;;;;;;2.20;2.00;;;22.40;47.60;;;;;;5010201;28;20130;-64
2022/10/05 03:31:42;;;;;;;2.72;2.42;;;22.40;47.60;;;;;;5009826;28;20042;-64
2022/10/05 03:34:26;;;;;;;2.00;1.80;;;22.40;47.60;;;;;;5009309;28;20541;-64
2022/10/05 03:37:32;;;;;;;2.75;2.30;;;22.40;47.60;;;;;;5004798;28;20489;-64
2022/10/05 03:40:19;;;;;;;2.60;2.40;;;22.40;47.60;;;;;;5008674;28;20473;-64
2022/10/05 03:43:12;;;;;;;2.35;2.10;;;22.40;47.60;;;;;;5009911;28;20601;-64
2022/10/05 03:46:05;;;;;;;2.95;2.33;;;22.40;47.70;;;;;;5009501;28;20046;-64
2022/10/05 03:48:45;;;;;;;2.35;1.98;;;22.40;47.70;;;;;;5004995;28;20413;-64
2022/10/05 03:51:20;;;;;;;2.15;1.63;;;22.40;47.60;;;;;;5010090;28;20045;-64
2022/10/05 03:53:53;;;;;;;2.22;1.77;;;22.40;47.60;;;;;;5008936;28;20072;-64
2022/10/05 03:56:36;;;;;;;2.85;2.05;;;22.40;47.60;;;;;;5008972;28;20381;-64
2022/10/05 03:59:14;;;;;;;1.88;1.77;;;22.40;47.60;;;;;;5010129;28;20042;-64
2022/10/05 04:01:53;;;;;;;3.10;1.95;;;22.40;47.60;;;;;;5008599;28;20041;-64
2022/10/05 04:04:41;;;;;;;2.53;2.33;;;22.40;47.60;;;;;;5009731;28;20045;-64
2022/10/05 04:07:17;;;;;;;2.13;1.52;;;22.40;47.60;;;;;;5009413;28;20490;-64
2022/10/05 04:09:48;;;;;;;1.80;1.70;;;22.40;47.50;;;;;;5007303;28;20046;-64
2022/10/05 04:12:26;;;;;;;1.88;1.77;;;22.40;47.60;;;;;;5008361;28;20518;-63
2022/10/05 04:14:58;;;;;;;2.00;1.88;;;22.40;47.50;;;;;;5009577;28;20053;-64
2022/10/05 04:17:45;;;;;;;1.75;1.55;;;22.40;47.50;;;;;;5004255;28;20081;-64
2022/10/05 04:20:21;;;;;;;1.80;1.70;;;22.40;47.40;;;;;;5003436;28;20046;-63
2022/10/05 04:23:18;;;;;;;1.95;1.80;;;22.40;47.50;;;;;;5017564;28;20057;-64
2022/10/05 04:25:50;;;;;;;2.38;1.92;;;22.40;47.50;;;;;;5019747;28;20060;-64
2022/10/05 04:28:41;;;;;;;2.00;1.85;;;22.40;47.50;;;;;;5016813;28;20044;-64
2022/10/05 04:31:15;;;;;;;2.42;1.83;;;22.30;47.40;;;;;;5015540;28;20050;-64
2022/10/05 04:33:52;;;;;;;1.58;1.48;;;22.40;47.50;;;;;;5009764;28;20485;-64
2022/10/05 04:36:29;;;;;;;2.50;1.88;;;22.30;47.50;;;;;;5018901;28;20375;-63
2022/10/05 04:39:19;;;;;;;1.73;1.60;;;22.30;47.30;;;;;;5008857;28;20053;-64
2022/10/05 04:42:08;;;;;;;1.80;1.60;;;22.30;47.10;;;;;;5009380;28;20053;-64
2022/10/05 04:44:56;;;;;;;2.13;1.75;;;22.30;47.00;;;;;;5006719;28;20050;-64
2022/10/05 04:48:00;;;;;;;2.15;1.70;;;22.30;46.90;;;;;;5009184;28;20074;-64
2022/10/05 04:51:07;;;;;;;2.58;1.95;;;22.40;46.80;;;;;;5007066;28;20186;-64
2022/10/05 04:54:02;;;;;;;2.88;2.00;;;22.30;46.80;;;;;;5009071;28;20053;-64
2022/10/05 04:56:39;;;;;;;2.80;2.33;;;22.30;46.70;;;;;;5008722;28;20470;-64
2022/10/05 04:59:42;;;;;;;2.63;2.20;;;22.30;46.60;;;;;;5008662;28;20486;-64
2022/10/05 05:02:45;;;;;;;2.58;1.88;;;22.30;46.60;;;;;;5007773;28;20380;-64
2022/10/05 05:05:42;;;;;;;2.58;1.60;;;22.30;46.50;;;;;;4996377;28;20038;-64
2022/10/05 05:09:08;;;;;;;2.13;1.83;;;22.30;46.40;;;;;;5008987;28;20065;-64
2022/10/05 05:12:15;;;;;;;5.32;1.95;;;22.30;46.20;;;;;;5013160;28;20486;-64
2022/10/05 05:15:17;;;;;;;3.25;2.20;;;22.30;46.10;;;;;;5018641;28;20049;-64
2022/10/05 05:18:24;;;;;;;2.83;1.90;;;22.30;46.00;;;;;;5027595;28;20069;-64
2022/10/05 05:21:05;;;;;;;2.78;1.77;;;22.40;45.90;;;;;;5013594;28;20057;-64
2022/10/05 05:23:41;;;;;;;2.33;2.10;;;22.40;45.80;;;;;;4997207;28;20045;-64
2022/10/05 05:26:48;;;;;;;2.63;1.95;;;22.40;45.80;;;;;;4993422;28;20054;-64
2022/10/05 05:29:55;;;;;;;3.17;1.70;;;22.40;45.70;;;;;;4995118;28;20153;-64
2022/10/05 05:32:57;;;;;;;2.80;2.03;;;22.40;45.60;;;;;;5000040;28;20123;-65
2022/10/05 05:36:02;;;;;;;3.15;1.85;;;22.50;45.50;;;;;;4999470;28;20810;-63
2022/10/05 05:38:38;;;;;;;2.28;1.98;;;22.50;45.50;;;;;;5003735;28;20047;-62
2022/10/05 05:41:12;;;;;;;1.95;1.65;;;22.50;45.50;;;;;;4996598;28;20375;-62
2022/10/05 05:44:13;;;;;;;3.00;2.20;;;22.50;45.50;;;;;;4996590;28;20050;-63
2022/10/05 05:47:01;;;;;;;6.05;2.80;;;22.50;45.50;;;;;;4995723;28;20438;-65
2022/10/05 05:50:04;;;;;;;3.00;2.17;;;22.50;45.50;;;;;;4999795;28;20104;-65
2022/10/05 05:52:57;;;;;;;3.53;2.33;;;22.50;45.50;;;;;;5003104;28;20081;-66
2022/10/05 05:55:39;;;;;;;4.70;2.63;;;22.60;45.50;;;;;;4995955;28;20518;-68
2022/10/05 05:58:40;;;;;;;5.93;2.55;;;22.60;45.50;;;;;;4998611;28;20399;-67
2022/10/05 06:01:24;;;;;;;2.83;2.13;;;22.70;45.80;;;;;;4996015;28;20046;-64
2022/10/05 06:04:11;;;;;;;4.40;2.70;;;22.70;45.80;;;;;;5003190;28;20092;-64
2022/10/05 06:06:43;;;;;;;4.80;2.65;;;22.70;45.90;;;;;;5004625;28;21788;-65
2022/10/05 06:09:27;;;;;;;5.80;3.35;;;22.80;46.50;;;;;;5008578;28;20084;-65
2022/10/05 06:11:59;;;;;;;9.48;2.78;;;22.80;46.00;;;;;;5006577;28;20144;-66
2022/10/05 06:14:41;;;;;;;4.53;2.60;;;22.90;45.90;;;;;;5002122;28;20431;-64
2022/10/05 06:17:27;;;;;;;4.57;3.22;;;22.90;45.70;;;;;;5001115;28;20058;-65
2022/10/05 06:19:57;;;;;;;3.88;2.95;;;22.90;45.70;;;;;;5003351;28;20046;-65
2022/10/05 06:22:39;;;;;;;4.82;2.67;;;23.00;45.80;;;;;;5003655;28;20053;-64
2022/10/05 06:25:35;;;;;;;4.68;3.03;;;23.00;45.80;;;;;;5000709;28;20046;-65
2022/10/05 06:28:14;;;;;;;7.40;3.22;;;23.00;45.90;;;;;;4993635;28;20054;-65
2022/10/05 06:30:59;;;;;;;4.25;2.97;;;23.10;46.00;;;;;;5005706;28;20078;-65
2022/10/05 06:33:42;;;;;;;7.75;3.13;;;23.10;45.90;;;;;;5007105;28;20490;-64
2022/10/05 06:36:41;;;;;;;4.47;2.92;;;23.20;45.90;;;;;;5005844;28;20434;-63
2022/10/05 06:39:49;;;;;;;4.67;2.70;;;23.20;46.30;;;;;;5003666;28;20065;-64
2022/10/05 06:42:44;;;;;;;8.38;3.67;;;23.20;45.70;;;;;;5003996;28;20045;-65
2022/10/05 06:45:51;;;;;;;5.03;3.33;;;23.30;45.70;;;;;;5003909;28;21628;-62
2022/10/05 06:48:44;;;;;;;5.95;3.08;;;23.30;45.80;;;;;;5004580;28;20073;-64
2022/10/05 06:51:49;;;;;;;3.67;2.80;;;23.30;45.80;;;;;;5000244;28;20053;-63
2022/10/05 06:54:42;;;;;;;4.13;2.40;;;23.40;45.80;;;;;;5006059;28;20061;-65
2022/10/05 06:57:37;;;;;;;8.05;2.95;;;23.40;45.80;;;;;;5015958;28;20060;-66
2022/10/05 07:00:15;;;;;;;6.07;3.08;;;23.40;45.80;;;;;;5000091;28;20050;-64
2022/10/05 07:03:02;;;;;;;4.47;2.78;;;23.50;45.70;;;;;;5006400;28;20049;-64
2022/10/05 07:05:51;;;;;;;7.65;3.40;;;23.50;45.50;;;;;;5003442;28;20056;-65
2022/10/05 07:08:35;;;;;;;8.02;3.58;;;23.50;45.40;;;;;;5003947;28;20715;-66
2022/10/05 07:11:17;;;;;;;7.13;3.10;;;23.60;45.40;;;;;;5004051;28;20045;-64
2022/10/05 07:14:12;;;;;;;4.57;3.17;;;23.60;45.30;;;;;;5005055;28;20050;-68
2022/10/05 07:17:19;;;;;;;7.95;3.83;;;23.60;45.30;;;;;;5005101;28;20473;-63
2022/10/05 07:20:07;;;;;;;4.57;3.55;;;23.60;45.30;;;;;;5002053;28;20050;-66
2022/10/05 07:22:54;;;;;;;6.20;3.33;;;23.70;45.50;;;;;;5005375;28;20046;-64
2022/10/05 07:25:35;;;;;;;7.80;4.15;;;23.70;45.60;;;;;;5003859;28;20061;-66
2022/10/05 07:28:08;;;;;;;6.03;3.58;;;23.80;45.70;;;;;;5002333;28;20050;-65
2022/10/05 07:30:45;;;;;;;5.88;3.47;;;23.80;45.70;;;;;;5000514;28;20050;-63
2022/10/05 07:33:22;;;;;;;9.15;3.50;;;23.90;45.80;;;;;;5006034;28;20107;-64
2022/10/05 07:39:10;;;;;;;5.05;3.15;;;23.90;45.70;;;;;;5001736;28;20041;-67
2022/10/05 07:41:50;;;;;;;5.97;3.00;;;24.00;45.70;;;;;;5004344;28;20052;-63
2022/10/05 07:44:35;;;;;;;7.05;3.85;;;24.00;45.60;;;;;;4999818;28;20413;-64
2022/10/05 07:47:21;;;;;;;5.30;3.30;;;24.00;45.50;;;;;;5004252;28;20054;-63
2022/10/05 07:50:01;;;;;;;5.10;2.70;;;24.10;45.50;;;;;;5000765;28;20061;-74
2022/10/05 07:52:38;;;;;;;6.65;3.28;;;24.10;45.20;;;;;;5002068;28;20057;-63
2022/10/05 07:55:30;;;;;;;5.13;3.20;;;24.10;44.20;;;;;;5004316;28;20625;-64
2022/10/05 07:58:23;;;;;;;3.88;2.63;;;24.10;45.10;;;;;;5000960;28;20057;-61
2022/10/05 08:01:15;;;;;;;4.15;2.53;;;24.10;44.70;;;;;;5002020;28;20050;-64
2022/10/05 08:03:54;;;;;;;4.78;3.00;;;24.10;44.70;;;;;;4999118;28;20049;-66
2022/10/05 08:07:00;;;;;;;4.13;2.20;;;24.10;44.60;;;;;;5003485;28;20061;-63
2022/10/05 08:09:57;;;;;;;5.38;3.15;;;24.10;44.60;;;;;;5005429;28;22583;-64
2022/10/05 08:12:49;;;;;;;4.78;2.08;;;24.20;44.70;;;;;;5003244;28;20899;-65
2022/10/05 08:15:24;;;;;;;4.18;2.83;;;24.20;44.80;;;;;;5001151;28;20430;-66
2022/10/05 08:17:59;;;;;;;4.43;2.45;;;24.20;44.80;;;;;;5000664;28;20148;-64
2022/10/05 08:20:48;;;;;;;3.80;2.72;;;24.30;44.90;;;;;;5000158;28;20049;-62
2022/10/05 08:23:24;;;;;;;3.53;2.00;;;24.30;44.90;;;;;;5002927;28;20056;-62
2022/10/05 08:26:24;;;;;;;3.28;2.28;;;24.30;45.00;;;;;;5003573;28;20053;-62
2022/10/05 08:29:28;;;;;;;2.63;2.40;;;24.30;44.80;;;;;;4995895;28;20049;-63
2022/10/05 08:32:04;;;;;;;4.45;2.38;;;24.30;44.60;;;;;;4995523;28;20061;-63
2022/10/05 08:34:48;;;;;;;4.47;2.70;;;24.40;44.60;;;;;;4999202;28;20053;-62
2022/10/05 08:37:36;;;;;;;3.65;1.98;;;24.40;44.50;;;;;;4995594;28;20049;-63
2022/10/05 08:40:43;;;;;;;4.72;2.22;;;24.40;44.40;;;;;;5007146;28;20065;-63
2022/10/05 08:43:40;;;;;;;4.57;2.20;;;24.40;44.30;;;;;;5002613;28;20077;-61
2022/10/05 08:46:47;;;;;;;3.58;1.92;;;24.40;44.30;;;;;;4996205;28;20434;-62
2022/10/05 08:49:40;;;;;;;4.57;2.10;;;24.50;44.20;;;;;;5001859;28;20712;-62
2022/10/05 08:52:29;;;;;;;3.50;2.50;;;24.50;44.20;;;;;;5001252;28;20061;-61
2022/10/05 08:55:26;;;;;;;4.55;2.47;;;24.50;44.20;;;;;;4999780;28;20041;-62
2022/10/05 08:58:33;;;;;;;1.98;1.55;;;24.50;44.10;;;;;;5000121;28;20414;-61
2022/10/05 09:01:15;;;;;;;2.20;1.67;;;24.50;44.10;;;;;;4998424;28;20118;-62
2022/10/05 09:04:21;;;;;;;2.33;1.80;;;24.50;44.00;;;;;;5000969;28;20081;-64
2022/10/05 09:07:07;;;;;;;1.90;1.48;;;24.50;44.00;;;;;;4992771;28;20056;-62
2022/10/05 09:10:04;;;;;;;2.08;1.70;;;24.50;43.90;;;;;;4995744;28;20050;-63
2022/10/05 09:13:11;;;;;;;5.75;1.70;;;24.60;43.80;;;;;;5002754;28;20052;-62
2022/10/05 09:16:17;;;;;;;3.63;1.98;;;24.60;43.80;;;;;;4985961;28;20475;-61
2022/10/05 09:19:06;;;;;;;2.53;1.85;;;24.60;43.80;;;;;;5002238;28;20466;-61
2022/10/05 09:21:59;;;;;;;4.50;1.77;;;24.60;43.80;;;;;;4997173;28;20486;-62
2022/10/05 09:24:41;;;;;;;1.52;1.42;;;24.60;44.20;;;;;;5016605;28;20489;-62
2022/10/05 09:27:16;;;;;;;2.92;1.88;;;24.70;43.70;;;;;;5018562;28;20096;-65
2022/10/05 09:30:05;;;;;;;2.35;1.48;;;24.60;43.60;;;;;;5008745;28;20046;-64
2022/10/05 09:33:12;;;;;;;2.58;1.42;;;24.70;43.50;;;;;;5000973;28;20056;-64
2022/10/05 09:36:19;;;;;;;2.80;2.28;;;24.70;43.50;;;;;;5005569;28;21124;-61
2022/10/05 09:39:19;;;;;;;2.90;1.45;;;24.70;43.30;;;;;;4989968;28;20140;-66
2022/10/05 09:42:23;;;;;;;5.95;1.67;;;24.70;43.30;;;;;;4998558;28;20064;-63
2022/10/05 09:45:27;;;;;;;1.45;1.25;;;24.70;43.30;;;;;;5000907;28;20042;-63
2022/10/05 09:48:24;;;;;;;2.80;1.50;;;24.80;43.20;;;;;;5002532;28;20056;-63
2022/10/05 09:51:22;;;;;;;3.85;1.67;;;24.80;43.20;;;;;;5002393;28;20057;-62
2022/10/05 09:54:27;;;;;;;1.75;1.55;;;24.80;43.10;;;;;;5003346;28;20300;-62
2022/10/05 09:57:25;;;;;;;3.85;1.48;;;24.90;43.10;;;;;;5001983;28;20046;-63
2022/10/05 10:00:21;;;;;;;1.70;1.60;;;24.90;42.90;;;;;;5002506;28;20050;-62
2022/10/05 10:03:16;;;;;;;1.40;1.30;;;24.90;43.40;;;;;;5006785;28;20477;-61
2022/10/05 10:06:24;;;;;;;5.13;1.35;;;24.90;42.90;;;;;;5003426;28;20073;-63
2022/10/05 10:09:25;;;;;;;3.03;1.80;;;24.90;42.90;;;;;;4989691;28;20037;-62
2022/10/05 10:12:22;;;;;;;2.50;1.30;;;25.00;42.90;;;;;;5001297;28;20057;-63
2022/10/05 10:15:28;;;;;;;2.92;1.35;;;25.00;42.90;;;;;;5002298;28;20149;-62
2022/10/05 10:18:31;;;;;;;3.38;1.60;;;25.00;42.70;;;;;;4999467;28;20129;-62
2022/10/05 10:21:24;;;;;;;1.73;1.30;;;25.00;43.10;;;;;;5007570;28;20057;-62
2022/10/05 10:24:32;;;;;;;2.80;1.50;;;25.00;42.50;;;;;;5006674;28;20074;-62
2022/10/05 10:27:15;;;;;;;3.03;1.60;;;25.10;42.40;;;;;;4998558;28;20049;-61
2022/10/05 10:30:22;;;;;;;5.60;1.20;;;25.10;42.40;;;;;;5006716;28;20050;-61
2022/10/05 10:33:21;;;;;;;1.42;1.13;;;25.10;42.20;;;;;;5001650;28;20076;-60
2022/10/05 10:36:26;;;;;;;1.67;1.08;;;25.10;42.20;;;;;;5002867;28;20065;-61
2022/10/05 10:39:03;;;;;;;1.77;1.50;;;25.10;42.10;;;;;;5006563;28;20053;-61
2022/10/05 10:42:10;;;;;;;4.13;1.92;;;25.20;42.00;;;;;;5004083;28;20698;-61
2022/10/05 10:45:18;;;;;;;1.88;1.45;;;25.20;41.80;;;;;;5003680;28;20124;-62
2022/10/05 10:48:25;;;;;;;2.88;1.50;;;25.30;41.80;;;;;;4983787;28;20081;-62
2022/10/05 10:51:12;;;;;;;1.30;1.20;;;25.30;41.70;;;;;;5004818;28;20053;-62
2022/10/05 10:54:11;;;;;;;2.17;1.40;;;25.30;41.50;;;;;;4998062;28;20065;-61
2022/10/05 10:56:57;;;;;;;2.72;1.02;;;25.30;41.40;;;;;;5003595;28;20524;-62
2022/10/05 11:00:02;;;;;;;1.27;1.13;;;25.40;41.30;;;;;;5004624;28;20062;-62
2022/10/05 11:03:03;;;;;;;2.08;1.50;;;25.40;41.30;;;;;;5005424;28;20068;-61
2022/10/05 11:05:49;;;;;;;1.52;1.25;;;25.40;41.40;;;;;;4991305;28;20506;-62
2022/10/05 11:08:54;;;;;;;1.52;1.02;;;25.40;41.40;;;;;;5006149;28;20053;-61
2022/10/05 11:11:52;;;;;;;1.95;1.33;;;25.40;41.50;;;;;;5008345;28;20061;-61
2022/10/05 11:14:59;;;;;;;2.03;1.17;;;25.40;41.70;;;;;;5006523;28;20478;-61
2022/10/05 11:17:49;;;;;;;3.55;1.40;;;25.40;41.80;;;;;;4996289;28;20072;-62
2022/10/05 11:20:45;;;;;;;1.98;1.00;;;25.40;41.90;;;;;;5003254;28;20052;-65
2022/10/05 11:23:48;;;;;;;3.60;1.35;;;25.40;41.80;;;;;;5008162;28;20416;-63
2022/10/05 11:26:55;;;;;;;1.33;1.23;;;25.40;41.80;;;;;;5006502;28;20133;-64
2022/10/05 11:30:00;;;;;;;12.65;1.40;;;25.50;41.80;;;;;;5012559;28;20046;-65
2022/10/05 11:33:01;;;;;;;2.20;1.60;;;25.50;41.80;;;;;;5002857;28;20052;-64
2022/10/05 11:36:08;;;;;;;1.42;1.20;;;25.50;41.60;;;;;;5011591;28;20537;-64
2022/10/05 11:39:15;;;;;;;3.63;1.15;;;25.50;41.60;;;;;;5005708;28;20045;-65
2022/10/05 11:42:22;;;;;;;0.95;0.85;;;25.60;41.60;;;;;;4992833;28;20053;-69
2022/10/05 11:45:22;;;;;;;1.33;0.80;;;25.70;41.60;;;;;;5012778;28;20084;-64
2022/10/05 11:48:13;;;;;;;1.40;0.90;;;25.70;41.60;;;;;;5009697;28;20053;-63
2022/10/05 11:51:16;;;;;;;2.67;1.30;;;25.70;41.60;;;;;;5005603;28;20379;-63
2022/10/05 11:54:17;;;;;;;2.03;1.48;;;25.70;41.60;;;;;;5003561;28;20506;-63
2022/10/05 11:56:58;;;;;;;2.45;0.90;;;25.80;41.60;;;;;;5003165;28;20376;-63
2022/10/05 11:59:36;;;;;;;2.88;1.33;;;25.80;41.70;;;;;;5001275;28;20049;-63
2022/10/05 12:02:38;;;;;;;4.05;1.30;;;25.80;41.50;;;;;;4996858;28;20414;-65
2022/10/05 12:05:21;;;;;;;2.35;1.08;;;25.90;41.60;;;;;;4999691;28;20501;-63
2022/10/05 12:08:17;;;;;;;1.80;1.25;;;25.90;41.50;;;;;;5000435;28;20050;-63
2022/10/05 12:11:08;;;;;;;2.92;1.23;;;25.90;41.50;;;;;;5003626;28;20049;-64
2022/10/05 12:14:02;;;;;;;3.92;1.10;;;26.00;41.50;;;;;;5004374;28;20049;-65
2022/10/05 12:16:48;;;;;;;4.00;1.40;;;26.00;41.40;;;;;;5004034;28;20694;-65
2022/10/05 12:19:35;;;;;;;1.38;1.00;;;26.00;41.30;;;;;;5002643;28;20085;-63
2022/10/05 12:22:21;;;;;;;2.97;0.95;;;26.10;41.30;;;;;;4999095;28;20042;-69
2022/10/05 12:25:16;;;;;;;3.45;1.25;;;26.10;41.30;;;;;;5000443;28;20058;-64
2022/10/05 12:27:46;;;;;;;2.05;1.63;;;26.10;41.30;;;;;;5001773;28;20049;-63
2022/10/05 12:30:44;;;;;;;1.52;1.05;;;26.10;41.30;;;;;;4999847;28;20554;-65
2022/10/05 12:33:32;;;;;;;4.32;1.30;;;26.20;41.40;;;;;;5006425;28;20045;-64
2022/10/05 12:36:18;;;;;;;1.52;1.13;;;26.20;41.20;;;;;;5001702;28;20060;-64
2022/10/05 12:38:58;;;;;;;3.13;1.00;;;26.20;41.30;;;;;;5003771;28;20053;-65
2022/10/05 12:41:35;;;;;;;;;;;26.20;41.20;;;;;;5006027;28;20046;-65
2022/10/05 12:44:41;;;;;;;1.55;1.27;;;26.30;41.30;;;;;;5004841;28;20429;-64
2022/10/05 12:47:22;;;;;;;2.55;1.02;;;26.30;41.00;;;;;;5001661;28;20065;-65
2022/10/05 12:50:11;;;;;;;1.27;1.02;;;26.30;40.80;;;;;;5003088;28;20054;-68
2022/10/05 12:53:03;;;;;;;3.85;1.35;;;26.30;40.80;;;;;;5011805;28;20058;-65
2022/10/05 12:55:53;;;;;;;1.60;1.30;;;26.30;40.90;;;;;;5008746;28;20077;-63
2022/10/05 12:58:50;;;;;;;3.45;1.50;;;26.40;40.90;;;;;;5004134;28;20053;-65
2022/10/05 13:01:41;;;;;;;2.30;1.20;;;26.40;40.80;;;;;;5004078;28;20054;-64
2022/10/05 13:04:31;;;;;;;1.40;1.30;;;26.40;40.80;;;;;;5006939;28;20049;-66
2022/10/05 13:07:08;;;;;;;;;;;26.40;40.80;;;;;;5002096;28;20076;-65
2022/10/05 13:09:48;;;;;;;4.50;1.40;;;26.40;41.30;;;;;;5002780;28;19963;-66
2022/10/05 13:12:52;;;;;;;4.40;1.42;;;26.40;40.80;;;;;;5002392;28;20355;-67
2022/10/05 13:15:45;;;;;;;4.03;1.30;;;26.40;40.90;;;;;;5001507;28;20049;-63
2022/10/05 13:18:40;;;;;;;3.25;1.00;;;26.40;41.10;;;;;;5000647;28;20045;-64
2022/10/05 13:21:14;;;;;;;3.67;1.27;;;26.40;40.90;;;;;;5003630;28;20038;-61
2022/10/05 13:23:54;;;;;;;1.15;1.05;;;26.40;40.90;;;;;;5005724;28;20054;-63
2022/10/05 13:26:35;;;;;;;3.30;1.92;;;26.40;40.80;;;;;;4992123;28;20042;-63
2022/10/05 13:29:32;;;;;;;1.85;1.48;;;26.40;40.80;;;;;;5003185;28;20482;-63
2022/10/05 13:32:11;;;;;;;1.40;1.30;;;26.40;40.60;;;;;;5000465;28;20054;-63
2022/10/05 13:34:53;;;;;;;2.85;1.15;;;26.40;40.60;;;;;;5000632;28;20478;-64
2022/10/05 13:38:00;;;;;;;2.13;1.15;;;26.40;40.50;;;;;;5002726;28;20373;-65
2022/10/05 13:40:43;;;;;;;2.50;1.63;;;26.40;40.60;;;;;;5002956;28;20049;-64
2022/10/05 13:43:37;;;;;;;4.30;1.60;;;26.40;40.60;;;;;;5002612;28;20046;-65
2022/10/05 13:46:19;;;;;;;1.42;1.30;;;26.40;40.50;;;;;;5002798;28;20042;-65
2022/10/05 13:49:20;;;;;;;1.70;1.08;;;26.40;40.50;;;;;;5002611;28;20493;-65
2022/10/05 13:52:13;;;;;;;3.30;1.10;;;26.40;40.50;;;;;;5004049;28;20049;-62
2022/10/05 13:55:05;;;;;;;3.22;1.20;;;26.40;40.50;;;;;;5002397;28;20050;-60
2022/10/05 13:58:04;;;;;;;14.48;2.03;;;26.40;40.40;;;;;;4997986;28;20065;-60
2022/10/05 14:00:42;;;;;;;1.92;1.45;;;26.50;40.40;;;;;;4997460;28;20057;-61
2022/10/05 14:03:31;;;;;;;2.00;0.95;;;26.60;40.20;;;;;;5001388;28;20050;-61
2022/10/05 14:06:00;;;;;;;2.28;1.00;;;26.60;40.00;;;;;;5001615;28;20045;-60
2022/10/05 14:08:33;;;;;;;2.40;0.93;;;26.70;40.10;;;;;;5003117;28;20430;-60
2022/10/05 14:11:25;;;;;;;4.07;1.23;;;26.70;40.00;;;;;;5001031;28;20430;-60
2022/10/05 14:14:20;;;;;;;3.13;1.05;;;26.80;40.00;;;;;;5005101;28;20078;-63
2022/10/05 14:16:51;;;;;;;2.30;1.25;;;26.70;40.10;;;;;;4996909;28;20050;-64
2022/10/05 14:19:31;;;;;;;2.15;1.15;;;26.80;40.10;;;;;;5014433;28;20042;-65
2022/10/05 14:22:11;;;;;;;2.42;1.10;;;26.80;40.20;;;;;;5004182;28;20042;-61
2022/10/05 14:25:06;;;;;;;5.47;1.55;;;26.80;40.30;;;;;;5005016;28;20046;-61
2022/10/05 14:27:47;;;;;;;7.00;1.20;;;26.80;40.60;;;;;;5005159;28;20197;-62
2022/10/05 14:30:19;;;;;;;2.30;1.20;;;26.80;40.40;;;;;;5008697;28;20062;-61
2022/10/05 14:33:13;;;;;;;2.17;1.23;;;26.80;40.40;;;;;;4996377;28;20060;-60
2022/10/05 14:35:49;;;;;;;2.72;1.13;;;26.80;40.50;;;;;;5011129;28;20052;-62
2022/10/05 14:38:21;;;;;;;1.52;1.10;;;26.80;40.40;;;;;;5019764;28;20402;-62
2022/10/05 14:41:18;;;;;;;3.85;1.30;;;26.80;40.50;;;;;;5005856;28;20077;-62
2022/10/05 14:44:04;;;;;;;1.45;1.00;;;26.80;40.50;;;;;;5009341;28;20052;-62